createdAt,value
2022-12-25T00:01:12.940Z,0.75
2022-12-25T00:03:41.117Z,1.55
2022-12-25T00:06:09.275Z,0.60
2022-12-25T00:08:37.754Z,1.38
2022-12-25T00:11:08.395Z,0.98
2022-12-25T00:13:36.307Z,1.23
2022-12-25T00:16:06.978Z,0.93
2022-12-25T00:18:34.946Z,0.70
2022-12-25T00:21:03.279Z,1.27
2022-12-25T00:23:31.345Z,0.77
2022-12-25T00:25:59.276Z,0.93
2022-12-25T00:28:28.542Z,1.10
2022-12-25T00:30:56.624Z,1.40
2022-12-25T00:33:25.471Z,1.45
2022-12-25T00:35:59.820Z,0.60
2022-12-25T00:38:27.912Z,0.93
2022-12-25T00:40:55.927Z,1.05
2022-12-25T00:43:24.149Z,1.17
2022-12-25T00:45:57.366Z,1.38
2022-12-25T00:48:25.585Z,1.17
2022-12-25T00:50:56.400Z,0.82
2022-12-25T00:53:24.778Z,0.65
2022-12-25T00:55:53.527Z,0.73
2022-12-25T00:58:21.477Z,1.02
2022-12-25T01:00:50.139Z,0.60
2022-12-25T01:03:19.295Z,0.32
2022-12-25T01:05:56.083Z,1.25
2022-12-25T01:08:24.157Z,1.45
2022-12-25T01:10:54.885Z,1.10
2022-12-25T01:13:22.793Z,0.98
2022-12-25T01:15:52.288Z,0.60
2022-12-25T01:18:21.858Z,1.48
2022-12-25T01:20:49.785Z,0.60
2022-12-25T01:23:17.850Z,1.23
2022-12-25T01:25:46.937Z,0.38
2022-12-25T01:28:14.805Z,0.73
2022-12-25T01:30:48.871Z,1.25
2022-12-25T01:33:16.943Z,1.13
2022-12-25T01:35:46.146Z,0.90
2022-12-25T01:38:13.848Z,1.27
2022-12-25T01:40:41.709Z,1.02
2022-12-25T01:43:18.812Z,1.25
2022-12-25T01:45:47.797Z,0.93
2022-12-25T01:48:17.439Z,0.90
2022-12-25T01:50:48.219Z,0.63
2022-12-25T01:53:16.235Z,0.47
2022-12-25T01:55:45.335Z,0.30
2022-12-25T01:58:13.350Z,0.60
2022-12-25T02:00:41.260Z,0.60
2022-12-25T02:03:09.337Z,0.32
2022-12-25T02:05:37.210Z,0.40
2022-12-25T02:08:09.008Z,1.00
2022-12-25T02:10:36.781Z,0.88
2022-12-25T02:13:04.569Z,0.40
2022-12-25T02:15:36.317Z,0.90
2022-12-25T02:18:08.561Z,0.57
2022-12-25T02:20:54.248Z,0.20
2022-12-25T02:23:34.294Z,1.30
2022-12-25T02:26:10.711Z,0.20
2022-12-25T02:28:46.099Z,0.52
2022-12-25T02:31:16.070Z,0.55
2022-12-25T02:34:04.521Z,1.23
2022-12-25T02:36:33.949Z,0.57
2022-12-25T02:39:20.832Z,0.52
2022-12-25T02:41:50.127Z,1.05
2022-12-25T02:44:39.129Z,0.60
2022-12-25T02:47:25.549Z,0.77
2022-12-25T02:50:12.343Z,0.32
2022-12-25T02:52:59.214Z,0.80
2022-12-25T02:55:46.325Z,0.70
2022-12-25T02:58:33.253Z,0.60
2022-12-25T03:01:21.695Z,0.43
2022-12-25T03:04:08.409Z,0.70
2022-12-25T03:06:47.049Z,0.85
2022-12-25T03:09:35.192Z,0.63
2022-12-25T03:12:06.704Z,0.43
2022-12-25T03:14:57.037Z,0.43
2022-12-25T03:17:26.454Z,0.55
2022-12-25T03:20:11.523Z,0.55
2022-12-25T03:22:57.361Z,1.00
2022-12-25T03:25:42.573Z,0.52
2022-12-25T03:28:10.482Z,0.30
2022-12-25T03:30:59.490Z,0.73
2022-12-25T03:33:46.944Z,0.28
2022-12-25T03:36:19.546Z,0.75
2022-12-25T03:39:18.397Z,0.20
2022-12-25T03:42:05.101Z,0.45
2022-12-25T03:45:10.854Z,0.63
2022-12-25T03:47:57.962Z,0.57
2022-12-25T03:50:49.387Z,0.70
2022-12-25T03:53:38.126Z,0.40
2022-12-25T03:56:24.685Z,0.50
2022-12-25T03:59:10.680Z,0.85
2022-12-25T04:01:56.173Z,0.52
2022-12-25T04:04:41.630Z,0.60
2022-12-25T04:07:28.308Z,0.52
2022-12-25T04:10:13.870Z,0.63
2022-12-25T04:12:59.043Z,0.43
2022-12-25T04:15:56.022Z,0.88
2022-12-25T04:18:41.210Z,0.73
2022-12-25T04:21:26.539Z,0.45
2022-12-25T04:24:13.392Z,0.63
2022-12-25T04:26:58.571Z,0.60
2022-12-25T04:29:43.909Z,0.50
2022-12-25T04:32:29.280Z,0.45
2022-12-25T04:35:14.280Z,0.20
2022-12-25T04:37:42.149Z,0.40
2022-12-25T04:40:12.063Z,0.80
2022-12-25T04:42:39.977Z,0.40
2022-12-25T04:45:08.321Z,0.30
2022-12-25T04:47:36.302Z,0.43
2022-12-25T04:50:04.290Z,0.38
2022-12-25T04:52:35.446Z,0.45
2022-12-25T04:55:03.297Z,0.63
2022-12-25T04:57:32.664Z,0.40
2022-12-25T05:00:00.617Z,0.25
2022-12-25T05:02:28.731Z,0.30
2022-12-25T05:04:56.748Z,0.10
2022-12-25T05:07:24.608Z,0.17
2022-12-25T05:09:52.544Z,0.65
2022-12-25T05:12:20.400Z,0.40
2022-12-25T05:14:49.802Z,0.20
2022-12-25T05:17:17.666Z,0.70
2022-12-25T05:19:45.583Z,0.40
2022-12-25T05:22:13.559Z,0.38
2022-12-25T05:24:41.415Z,0.20
2022-12-25T05:27:09.336Z,0.38
2022-12-25T05:29:37.194Z,0.55
2022-12-25T05:32:06.700Z,0.47
2022-12-25T05:34:34.669Z,0.30
2022-12-25T05:37:02.578Z,0.30
2022-12-25T05:39:30.341Z,0.30
2022-12-25T05:41:58.260Z,0.20
2022-12-25T05:44:26.082Z,0.30
2022-12-25T05:46:54.034Z,0.32
2022-12-25T05:49:23.371Z,0.15
2022-12-25T05:51:51.315Z,0.28
2022-12-25T05:54:19.324Z,0.15
2022-12-25T05:56:47.303Z,0.55
2022-12-25T05:59:15.214Z,0.40
2022-12-25T06:01:43.219Z,0.20
2022-12-25T06:04:12.967Z,0.13
2022-12-25T06:06:42.563Z,0.40
2022-12-25T06:09:10.724Z,0.57
2022-12-25T06:11:38.702Z,0.20
2022-12-25T06:14:06.697Z,0.30
2022-12-25T06:16:38.196Z,0.32
2022-12-25T06:19:06.637Z,0.40
2022-12-25T06:21:34.968Z,0.30
2022-12-25T06:24:04.460Z,0.50
2022-12-25T06:26:32.362Z,0.50
2022-12-25T06:29:00.368Z,0.20
2022-12-25T06:31:28.301Z,0.40
2022-12-25T06:33:56.452Z,0.57
2022-12-25T06:36:25.028Z,0.55
2022-12-25T06:38:53.344Z,0.30
2022-12-25T06:41:23.665Z,0.30
2022-12-25T06:43:52.039Z,0.35
2022-12-25T06:46:20.687Z,0.40
2022-12-25T06:48:49.757Z,0.22
2022-12-25T06:51:18.162Z,0.20
2022-12-25T06:53:46.222Z,0.40
2022-12-25T06:56:16.094Z,0.20
2022-12-25T06:58:46.504Z,0.43
2022-12-25T07:01:17.763Z,0.20
2022-12-25T07:03:46.794Z,0.10
2022-12-25T07:06:15.223Z,0.20
2022-12-25T07:08:43.040Z,0.20
2022-12-25T07:11:11.008Z,1.08
2022-12-25T07:13:38.977Z,0.10
2022-12-25T07:16:08.724Z,0.17
2022-12-25T07:18:36.487Z,0.10
2022-12-25T07:21:07.581Z,0.30
2022-12-25T07:23:35.558Z,0.20
2022-12-25T07:26:03.676Z,0.15
2022-12-25T07:28:31.949Z,0.15
2022-12-25T07:31:02.346Z,0.20
2022-12-25T07:33:31.938Z,0.20
2022-12-25T07:35:59.850Z,0.50
2022-12-25T07:38:27.817Z,0.13
2022-12-25T07:40:55.891Z,0.20
2022-12-25T07:43:24.064Z,0.32
2022-12-25T07:45:55.215Z,0.63
2022-12-25T07:48:23.166Z,0.20
2022-12-25T07:50:56.296Z,0.17
2022-12-25T07:53:24.170Z,0.20
2022-12-25T07:55:57.352Z,0.20
2022-12-25T07:58:25.326Z,0.25
2022-12-25T08:00:53.235Z,0.20
2022-12-25T08:03:21.392Z,0.47
2022-12-25T08:05:49.431Z,0.20
2022-12-25T08:08:18.626Z,0.20
2022-12-25T08:10:47.382Z,0.40
2022-12-25T08:13:15.232Z,0.30
2022-12-25T08:15:43.147Z,0.22
2022-12-25T08:18:11.010Z,0.28
2022-12-25T08:20:38.977Z,0.35
2022-12-25T08:23:07.002Z,0.10
2022-12-25T08:25:36.350Z,0.10
2022-12-25T08:28:04.365Z,0.40
2022-12-25T08:30:32.325Z,0.63
2022-12-25T08:33:00.297Z,0.50
2022-12-25T08:35:28.105Z,0.30
2022-12-25T08:37:55.981Z,0.65
2022-12-25T08:40:23.795Z,1.00
2022-12-25T08:42:53.145Z,0.20
2022-12-25T08:45:21.018Z,0.57
2022-12-25T08:47:48.922Z,0.55
2022-12-25T08:50:16.847Z,0.47
2022-12-25T08:52:44.669Z,0.63
2022-12-25T08:55:12.524Z,0.28
2022-12-25T08:57:40.365Z,0.20
2022-12-25T09:00:10.663Z,0.50
2022-12-25T09:02:38.588Z,0.55
2022-12-25T09:05:07.267Z,0.63
2022-12-25T09:07:35.241Z,1.15
2022-12-25T09:10:03.066Z,0.88
2022-12-25T09:12:30.973Z,0.80
2022-12-25T09:14:58.871Z,1.58
2022-12-25T09:17:28.235Z,1.30
2022-12-25T09:19:56.090Z,1.48
2022-12-25T09:22:23.855Z,1.27
2022-12-25T09:24:51.768Z,1.25
2022-12-25T09:27:19.582Z,1.25
2022-12-25T09:29:47.406Z,0.98
2022-12-25T09:32:15.235Z,1.17
2022-12-25T09:34:44.484Z,1.52
2022-12-25T09:37:12.474Z,1.60
2022-12-25T09:39:46.117Z,1.10
2022-12-25T09:42:16.211Z,1.30
2022-12-25T09:44:45.138Z,2.13
2022-12-25T09:47:14.631Z,1.10
2022-12-25T09:49:48.364Z,0.80
2022-12-25T09:52:18.045Z,1.10
2022-12-25T09:54:49.859Z,1.17
2022-12-25T09:57:17.723Z,1.15
2022-12-25T09:59:47.557Z,1.65
2022-12-25T10:02:31.316Z,1.30
2022-12-25T10:05:09.205Z,1.17
2022-12-25T10:07:44.563Z,1.42
2022-12-25T10:10:22.256Z,1.33
2022-12-25T10:12:55.503Z,1.15
2022-12-25T10:15:28.852Z,1.35
2022-12-25T10:18:01.898Z,1.33
2022-12-25T10:20:38.637Z,1.20
2022-12-25T10:23:11.222Z,1.38
2022-12-25T10:25:40.018Z,1.48
2022-12-25T10:28:11.923Z,1.20
2022-12-25T10:30:41.076Z,1.38
2022-12-25T10:33:16.678Z,1.00
2022-12-25T10:35:47.038Z,1.58
2022-12-25T10:38:15.839Z,1.13
2022-12-25T10:40:48.729Z,1.17
2022-12-25T10:43:18.347Z,1.10
2022-12-25T10:45:47.373Z,1.10
2022-12-25T10:48:20.660Z,1.45
2022-12-25T10:50:50.306Z,0.60
2022-12-25T10:53:20.119Z,1.10
2022-12-25T10:55:58.162Z,1.23
2022-12-25T10:58:26.077Z,1.33
2022-12-25T11:00:54.930Z,0.85
2022-12-25T11:03:24.613Z,1.27
2022-12-25T11:05:54.409Z,0.95
2022-12-25T11:08:23.697Z,1.17
2022-12-25T11:10:55.966Z,0.90
2022-12-25T11:13:25.197Z,1.30
2022-12-25T11:16:02.836Z,1.13
2022-12-25T11:18:33.473Z,1.42
2022-12-25T11:21:03.376Z,0.90
2022-12-25T11:23:32.037Z,1.17
2022-12-25T11:26:01.184Z,1.02
2022-12-25T11:28:30.138Z,1.02
2022-12-25T11:31:01.835Z,1.42
2022-12-25T11:33:32.483Z,1.17
2022-12-25T11:36:01.147Z,1.20
2022-12-25T11:38:30.997Z,1.30
2022-12-25T11:41:00.451Z,1.30
2022-12-25T11:43:30.918Z,1.70
2022-12-25T11:46:05.365Z,1.50
2022-12-25T11:48:34.981Z,1.58
2022-12-25T11:51:03.535Z,1.45
2022-12-25T11:53:34.990Z,1.98
2022-12-25T11:56:04.032Z,1.70
2022-12-25T11:58:34.993Z,1.40
2022-12-25T12:01:06.108Z,1.40
2022-12-25T12:03:36.676Z,1.50
2022-12-25T12:06:06.147Z,1.70
2022-12-25T12:08:36.821Z,1.45
2022-12-25T12:11:16.906Z,1.42
2022-12-25T12:13:51.803Z,2.05
2022-12-25T12:16:19.867Z,1.60
2022-12-25T12:18:50.502Z,1.90
2022-12-25T12:21:22.868Z,2.13
2022-12-25T12:23:55.498Z,1.83
2022-12-25T12:26:24.863Z,2.17
2022-12-25T12:28:54.248Z,1.70
2022-12-25T12:31:22.549Z,1.95
2022-12-25T12:33:53.105Z,1.90
2022-12-25T12:36:34.462Z,2.25
2022-12-25T12:39:05.961Z,1.42
2022-12-25T12:41:44.292Z,1.88
2022-12-25T12:44:12.927Z,2.03
2022-12-25T12:46:51.294Z,2.22
2022-12-25T12:49:22.397Z,1.83
2022-12-25T12:51:50.329Z,1.52
2022-12-25T12:54:21.637Z,1.90
2022-12-25T12:57:05.349Z,1.88
2022-12-25T12:59:40.145Z,2.00
2022-12-25T13:02:23.894Z,1.70
2022-12-25T13:04:54.721Z,1.88
2022-12-25T13:07:32.259Z,2.03
2022-12-25T13:10:09.448Z,1.80
2022-12-25T13:12:37.840Z,2.10
2022-12-25T13:15:11.685Z,1.73
2022-12-25T13:17:39.810Z,1.92
2022-12-25T13:20:08.827Z,1.50
2022-12-25T13:22:37.586Z,1.60
2022-12-25T13:25:09.596Z,1.80
2022-12-25T13:27:37.615Z,1.52
2022-12-25T13:30:13.421Z,1.80
2022-12-25T13:32:42.135Z,1.95
2022-12-25T13:35:13.650Z,1.70
2022-12-25T13:37:41.519Z,1.80
2022-12-25T13:40:19.726Z,1.70
2022-12-25T13:42:48.451Z,1.83
2022-12-25T13:45:22.055Z,1.98
2022-12-25T13:47:55.209Z,2.00
2022-12-25T13:50:25.312Z,1.50
2022-12-25T13:52:53.938Z,2.03
2022-12-25T13:55:24.224Z,1.90
2022-12-25T13:57:53.435Z,1.85
2022-12-25T14:00:23.056Z,1.70
2022-12-25T14:02:51.440Z,1.55
2022-12-25T14:05:26.996Z,1.90
2022-12-25T14:07:55.420Z,1.80
2022-12-25T14:10:25.706Z,1.77
2022-12-25T14:12:54.792Z,1.65
2022-12-25T14:15:23.372Z,1.60
2022-12-25T14:17:52.324Z,1.40
2022-12-25T14:20:24.378Z,2.00
2022-12-25T14:22:53.135Z,1.95
2022-12-25T14:25:22.216Z,1.98
2022-12-25T14:27:52.122Z,1.70
2022-12-25T14:30:20.451Z,1.98
2022-12-25T14:32:50.862Z,1.92
2022-12-25T14:35:23.342Z,1.65
2022-12-25T14:37:55.357Z,1.60
2022-12-25T14:40:25.426Z,1.80
2022-12-25T14:42:57.837Z,1.80
2022-12-25T14:45:30.401Z,1.85
2022-12-25T14:47:59.310Z,1.70
2022-12-25T14:50:28.199Z,2.25
2022-12-25T14:52:56.222Z,1.70
2022-12-25T14:55:25.075Z,1.60
2022-12-25T14:57:55.536Z,1.70
2022-12-25T15:00:26.014Z,1.80
2022-12-25T15:02:55.064Z,1.92
2022-12-25T15:05:27.488Z,1.85
2022-12-25T15:08:06.382Z,2.20
2022-12-25T15:13:22.640Z,1.85
2022-12-25T15:15:58.410Z,1.60
2022-12-25T15:18:27.505Z,2.03
2022-12-25T15:20:56.346Z,1.92
2022-12-25T15:23:25.471Z,2.03
2022-12-25T15:25:53.354Z,2.35
2022-12-25T15:28:21.182Z,2.55
2022-12-25T15:30:50.020Z,2.28
2022-12-25T15:33:20.014Z,2.47
2022-12-25T15:35:47.892Z,2.55
2022-12-25T15:38:15.908Z,2.05
2022-12-25T15:40:43.833Z,2.65
2022-12-25T15:43:31.192Z,2.42
2022-12-25T15:46:01.316Z,2.50
2022-12-25T15:48:30.717Z,3.00
2022-12-25T15:50:58.577Z,3.30
2022-12-25T15:53:27.261Z,2.60
2022-12-25T15:55:55.026Z,2.38
2022-12-25T15:58:22.840Z,2.55
2022-12-25T16:00:51.624Z,2.75
2022-12-25T16:03:19.557Z,3.13
2022-12-25T16:05:48.895Z,2.97
2022-12-25T16:08:16.698Z,2.70
2022-12-25T16:10:44.542Z,2.80
2022-12-25T16:13:12.438Z,2.58
2022-12-25T16:15:40.389Z,3.03
2022-12-25T16:18:08.435Z,2.67
2022-12-25T16:20:36.337Z,2.42
2022-12-25T16:23:05.637Z,3.00
2022-12-25T16:25:33.484Z,2.70
2022-12-25T16:28:03.630Z,2.47
2022-12-25T16:30:31.539Z,2.95
2022-12-25T16:32:59.306Z,3.00
2022-12-25T16:35:27.166Z,2.92
2022-12-25T16:37:55.139Z,2.88
2022-12-25T16:40:24.436Z,3.10
2022-12-25T16:42:52.297Z,2.90
2022-12-25T16:45:20.172Z,3.10
2022-12-25T16:47:48.030Z,3.03
2022-12-25T16:50:16.416Z,3.25
2022-12-25T16:52:44.271Z,3.40
2022-12-25T16:55:12.146Z,3.17
2022-12-25T16:57:41.338Z,3.17
2022-12-25T17:00:09.868Z,3.28
2022-12-25T17:02:37.860Z,3.60
2022-12-25T17:05:06.211Z,3.65
2022-12-25T17:07:36.376Z,3.08
2022-12-25T17:10:04.807Z,3.40
2022-12-25T17:12:32.669Z,3.75
2022-12-25T17:15:01.931Z,3.50
2022-12-25T17:17:29.954Z,3.35
2022-12-25T17:19:57.761Z,4.05
2022-12-25T17:22:25.777Z,3.75
2022-12-25T17:24:53.586Z,3.78
2022-12-25T17:27:21.456Z,3.80
2022-12-25T17:29:49.778Z,3.80
2022-12-25T17:32:18.972Z,3.90
2022-12-25T17:34:46.777Z,4.15
2022-12-25T17:37:14.671Z,4.72
2022-12-25T17:39:42.568Z,3.55
2022-12-25T17:42:10.491Z,4.38
2022-12-25T17:44:38.348Z,4.18
2022-12-25T17:47:06.216Z,4.68
2022-12-25T17:49:36.003Z,4.90
2022-12-25T17:52:03.946Z,4.45
2022-12-25T17:54:31.582Z,4.15
2022-12-25T17:56:59.469Z,4.18
2022-12-25T17:59:29.653Z,4.20
2022-12-25T18:01:57.692Z,4.35
2022-12-25T18:04:25.692Z,4.20
2022-12-25T18:06:55.180Z,4.18
2022-12-25T18:09:23.043Z,3.83
2022-12-25T18:11:50.960Z,4.22
2022-12-25T18:14:18.775Z,4.22
2022-12-25T18:16:46.738Z,4.43
2022-12-25T18:19:15.496Z,4.13
2022-12-25T18:21:43.478Z,4.43
2022-12-25T18:24:13.047Z,4.32
2022-12-25T18:26:41.069Z,4.10
2022-12-25T18:29:10.166Z,4.80
2022-12-25T18:31:38.175Z,4.00
2022-12-25T18:34:06.312Z,3.85
2022-12-25T18:36:34.162Z,4.32
2022-12-25T18:39:02.142Z,4.13
2022-12-25T18:41:31.477Z,3.80
2022-12-25T18:44:00.878Z,3.85
2022-12-25T18:46:28.986Z,3.92
2022-12-25T18:48:57.614Z,3.63
2022-12-25T18:51:29.908Z,3.80
2022-12-25T18:54:02.844Z,3.85
2022-12-25T18:56:32.100Z,3.75
2022-12-25T18:59:00.632Z,3.97
2022-12-25T19:01:28.761Z,3.33
2022-12-25T19:04:04.359Z,3.97
2022-12-25T19:06:33.533Z,3.45
2022-12-25T19:09:09.446Z,3.45
2022-12-25T19:11:46.125Z,3.78
2022-12-25T19:14:14.680Z,3.80
2022-12-25T19:16:42.703Z,3.58
2022-12-25T19:19:10.724Z,3.63
2022-12-25T19:21:38.608Z,3.42
2022-12-25T19:24:06.810Z,3.40
2022-12-25T19:26:36.016Z,3.70
2022-12-25T19:29:05.469Z,3.33
2022-12-25T19:31:33.536Z,3.15
2022-12-25T19:34:01.508Z,3.38
2022-12-25T19:36:29.319Z,3.35
2022-12-25T19:38:57.348Z,3.00
2022-12-25T19:41:25.465Z,3.58
2022-12-25T19:43:53.585Z,3.33
2022-12-25T19:46:23.901Z,3.20
2022-12-25T19:48:51.929Z,3.55
2022-12-25T19:51:21.078Z,3.10
2022-12-25T19:53:49.093Z,3.15
2022-12-25T19:56:17.334Z,3.80
2022-12-25T19:58:45.395Z,3.47
2022-12-25T20:01:14.050Z,1.27
2022-12-25T20:03:46.342Z,1.13
2022-12-25T20:06:18.767Z,1.15
2022-12-25T20:08:46.732Z,0.85
2022-12-25T20:11:15.409Z,0.75
2022-12-25T20:13:43.276Z,1.00
2022-12-25T20:16:11.557Z,1.13
2022-12-25T20:18:39.969Z,0.85
2022-12-25T20:21:10.352Z,1.95
2022-12-25T20:23:38.315Z,1.38
2022-12-25T20:26:06.704Z,1.13
2022-12-25T20:28:35.607Z,0.73
2022-12-25T20:31:05.807Z,0.43
2022-12-25T20:33:34.546Z,0.88
2022-12-25T20:36:03.417Z,1.10
2022-12-25T20:38:32.626Z,1.02
2022-12-25T20:41:26.194Z,0.82
2022-12-25T20:43:49.029Z,0.60
2022-12-25T20:46:16.902Z,0.65
2022-12-25T20:48:45.192Z,0.98
2022-12-25T20:51:14.375Z,1.13
2022-12-25T20:53:44.195Z,0.93
2022-12-25T20:56:12.460Z,0.70
2022-12-25T20:58:40.398Z,1.25
2022-12-25T21:01:08.907Z,0.93
2022-12-25T21:03:37.044Z,1.58
2022-12-25T21:06:05.051Z,0.98
2022-12-25T21:08:32.877Z,1.23
2022-12-25T21:11:02.686Z,1.30
2022-12-25T21:13:31.786Z,1.50
2022-12-25T21:15:59.787Z,0.82
2022-12-25T21:18:28.269Z,1.00
2022-12-25T21:20:57.315Z,0.50
2022-12-25T21:23:26.878Z,1.45
2022-12-25T21:25:55.035Z,0.80
2022-12-25T21:28:26.032Z,1.40
2022-12-25T21:30:53.962Z,0.77
2022-12-25T21:33:39.387Z,0.82
2022-12-25T21:36:08.054Z,0.98
2022-12-25T21:38:35.951Z,1.65
2022-12-25T21:41:05.229Z,1.25
2022-12-25T21:43:35.557Z,1.17
2022-12-25T21:46:04.386Z,1.60
2022-12-25T21:48:32.703Z,1.52
2022-12-25T21:51:20.029Z,1.17
2022-12-25T21:53:48.198Z,1.38
2022-12-25T21:56:16.113Z,0.82
2022-12-25T21:58:45.582Z,0.98
2022-12-25T22:01:16.751Z,1.10
2022-12-25T22:03:45.225Z,1.20
2022-12-25T22:06:31.169Z,1.48
2022-12-25T22:08:59.098Z,1.63
2022-12-25T22:11:44.778Z,0.98
2022-12-25T22:14:52.288Z,0.90
2022-12-25T22:17:40.873Z,1.02
2022-12-25T22:20:10.139Z,0.82
2022-12-25T22:22:38.088Z,1.27
2022-12-25T22:25:06.941Z,1.02
2022-12-25T22:27:37.602Z,1.40
2022-12-25T22:30:07.823Z,0.70
2022-12-25T22:32:35.691Z,0.85
2022-12-25T22:35:03.655Z,0.90
2022-12-25T22:37:31.530Z,0.98
2022-12-25T22:40:01.227Z,1.30
2022-12-25T22:42:29.360Z,0.45
2022-12-25T22:44:57.273Z,1.08
2022-12-25T22:47:26.521Z,0.95
2022-12-25T22:49:54.332Z,0.90
2022-12-25T22:52:22.248Z,0.88
2022-12-25T22:54:50.140Z,1.02
2022-12-25T22:57:17.917Z,1.08
2022-12-25T22:59:47.087Z,1.00
2022-12-25T23:02:15.124Z,0.80
2022-12-25T23:04:44.347Z,0.45
2022-12-25T23:07:14.624Z,0.82
2022-12-25T23:09:43.052Z,1.00
2022-12-25T23:12:31.441Z,1.00
2022-12-25T23:14:58.277Z,0.73
2022-12-25T23:17:43.292Z,0.55
2022-12-25T23:20:32.357Z,1.05
2022-12-25T23:23:17.846Z,1.17
2022-12-25T23:26:03.152Z,1.20
2022-12-25T23:28:48.327Z,1.10
2022-12-25T23:31:16.267Z,0.65
2022-12-25T23:33:44.090Z,1.10
2022-12-25T23:36:13.308Z,1.48
2022-12-25T23:38:41.116Z,0.63
2022-12-25T23:41:08.996Z,1.85
2022-12-25T23:43:36.997Z,1.05
2022-12-25T23:46:04.805Z,0.57
2022-12-25T23:48:32.867Z,0.60
2022-12-25T23:51:03.213Z,0.80
2022-12-25T23:53:32.412Z,0.70
2022-12-25T23:56:00.333Z,0.73
2022-12-25T23:58:28.546Z,0.95
